This is the latest recevied weather packets stored in our database for station/object KE8WMS. If no packets are shown the sender has not sent any weather packets the latest 10 day(s).
| Time | Temp. | Humidity | Pressure | Rain* | Wind** | Luminosity | Snow |
|---|---|---|---|---|---|---|---|
| 1777916743 | 22.22° C | 48% | 1002.6 hPa | 0 mm | - | 757 W/m² | - |
| 1777916439 | 22.78° C | 47% | 1002.6 hPa | 0 mm | - | 760 W/m² | - |
| 1777916136 | 22.22° C | 48% | 1002.5 hPa | 0 mm | - | 764 W/m² | - |
| 1777915834 | 22.22° C | 50% | 1002.7 hPa | 0 mm | - | 760 W/m² | - |
| 1777915530 | 22.22° C | 49% | 1002.7 hPa | 0 mm | - | 762 W/m² | - |
| 1777915226 | 22.22° C | 47% | 1002.7 hPa | 0 mm | - | 763 W/m² | - |
| 1777914923 | 21.67° C | 48% | 1002.9 hPa | 0 mm | - | 766 W/m² | - |
| 1777914620 | 22.22° C | 46% | 1002.8 hPa | 0 mm | - | 765 W/m² | - |
| 1777914316 | 22.22° C | 49% | 1002.9 hPa | 0 mm | - | 764 W/m² | - |
| 1777914014 | 22.22° C | 50% | 1002.8 hPa | 0 mm | - | 763 W/m² | - |
| 1777913488 | 22.22° C | 47% | 1003 hPa | 0 mm | - | 758 W/m² | - |
| 1777913185 | 22.22° C | 47% | 1003 hPa | 0 mm | - | 758 W/m² | - |
| 1777912881 | 22.22° C | 47% | 1003 hPa | 0 mm | - | 758 W/m² | - |
| 1777912578 | 21.67° C | 49% | 1003.3 hPa | 0 mm | - | 754 W/m² | - |
| 1777912275 | 21.67° C | 49% | 1003.3 hPa | 0 mm | - | 752 W/m² | - |
| 1777911971 | 21.67° C | 50% | 1003.3 hPa | 0 mm | - | 747 W/m² | - |
| 1777911667 | 21.11° C | 48% | 1003.4 hPa | 0 mm | - | 743 W/m² | - |
| 1777911363 | 21.11° C | 49% | 1003.4 hPa | 0 mm | - | 739 W/m² | - |
| 1777911061 | 21.11° C | 50% | 1003.6 hPa | 0 mm | - | 734 W/m² | - |
| 1777910758 | 21.11° C | 52% | 1003.5 hPa | 0 mm | - | 730 W/m² | - |
| 1777910455 | 21.11° C | 49% | 1003.5 hPa | 0 mm | - | 724 W/m² | - |
| 1777910151 | 21.11° C | 51% | 1003.5 hPa | 0 mm | - | 719 W/m² | - |
| 1777909849 | 20.56° C | 54% | 1003.7 hPa | 0 mm | - | 712 W/m² | - |
| 1777909545 | 20.56° C | 52% | 1003.7 hPa | 0 mm | - | 706 W/m² | - |
| 1777909243 | 20° C | 54% | 1003.9 hPa | 0 mm | - | 700 W/m² | - |
* Rain latest hour (hover to see other rain measurements)
** Current wind speed in m/s (hover to see current wind gust speed)